EBDT

Schaffen Airport

Diest, Belgium
METAR EBDT 152025Z AUTO 03003KT 9999 NCD 23/09 Q1015 BLU
Observed Flight Rules
Jul-15 @ 20:25 UTC (45 minutes ago) Visual Flight Rules
Wind Visibility Clouds
30° at 3 knots 10,000+ meters
  • Clear skies
Temperatures Readings
Current 23°C / 73°F
Dewpoint 9°C / 48°F
Humidity 41%
Altimeter 29.97" Hg
Pressure 1015 hPa
Elevation 54
METAR EBDT 152025Z AUTO 03003KT 9999 NCD 23/09 Q1015 BLU
Observed Flight Rules
Jul-15 @ 20:25 UTC
(45 minutes ago)
VFR
Wind Visibility
30° at 3 knots 10,000+ meters
Clouds
  • Clear skies
Temperature Dewpoint
23°C / 73°F 9°C / 48°F
Humidity Altimeter Pressure
41% 29.97" Hg 1015 hPa